sensor_id;sensor_type;location;lat;lon;timestamp;P1;durP1;ratioP1;P2;durP2;ratioP2
8413;SDS011;4244;48.684;9.028;2022-08-02T00:01:45;3.87;;;3.33;;
8413;SDS011;4244;48.684;9.028;2022-08-02T00:04:11;4.13;;;3.73;;
8413;SDS011;4244;48.684;9.028;2022-08-02T00:06:37;4.60;;;3.53;;
8413;SDS011;4244;48.684;9.028;2022-08-02T00:09:03;4.67;;;3.97;;
8413;SDS011;4244;48.684;9.028;2022-08-02T00:11:29;4.13;;;3.70;;
8413;SDS011;4244;48.684;9.028;2022-08-02T00:13:55;4.50;;;4.10;;
8413;SDS011;4244;48.684;9.028;2022-08-02T00:16:21;4.10;;;3.70;;
8413;SDS011;4244;48.684;9.028;2022-08-02T00:18:46;5.30;;;3.80;;
8413;SDS011;4244;48.684;9.028;2022-08-02T00:21:12;2.97;;;2.77;;
8413;SDS011;4244;48.684;9.028;2022-08-02T00:23:38;3.97;;;3.33;;
8413;SDS011;4244;48.684;9.028;2022-08-02T00:26:04;4.80;;;3.33;;
8413;SDS011;4244;48.684;9.028;2022-08-02T00:28:29;3.33;;;3.03;;
8413;SDS011;4244;48.684;9.028;2022-08-02T00:30:56;4.10;;;3.00;;
8413;SDS011;4244;48.684;9.028;2022-08-02T00:33:22;3.30;;;3.00;;
8413;SDS011;4244;48.684;9.028;2022-08-02T00:35:48;3.63;;;3.33;;
8413;SDS011;4244;48.684;9.028;2022-08-02T00:38:14;4.20;;;3.00;;
8413;SDS011;4244;48.684;9.028;2022-08-02T00:40:40;3.90;;;3.20;;
8413;SDS011;4244;48.684;9.028;2022-08-02T00:43:14;3.37;;;3.07;;
8413;SDS011;4244;48.684;9.028;2022-08-02T00:45:40;3.90;;;3.60;;
8413;SDS011;4244;48.684;9.028;2022-08-02T00:48:07;3.07;;;2.77;;
8413;SDS011;4244;48.684;9.028;2022-08-02T00:50:35;3.17;;;2.90;;
8413;SDS011;4244;48.684;9.028;2022-08-02T00:53:01;5.40;;;3.20;;
8413;SDS011;4244;48.684;9.028;2022-08-02T00:55:27;3.03;;;2.73;;
8413;SDS011;4244;48.684;9.028;2022-08-02T00:57:53;3.10;;;2.50;;
8413;SDS011;4244;48.684;9.028;2022-08-02T01:00:19;3.13;;;2.83;;
8413;SDS011;4244;48.684;9.028;2022-08-02T01:02:45;3.10;;;2.83;;
8413;SDS011;4244;48.684;9.028;2022-08-02T01:05:11;5.43;;;2.77;;
8413;SDS011;4244;48.684;9.028;2022-08-02T01:07:37;3.00;;;2.47;;
8413;SDS011;4244;48.684;9.028;2022-08-02T01:10:03;2.50;;;2.30;;
8413;SDS011;4244;48.684;9.028;2022-08-02T01:12:29;2.80;;;2.50;;
8413;SDS011;4244;48.684;9.028;2022-08-02T01:14:56;2.83;;;2.17;;
8413;SDS011;4244;48.684;9.028;2022-08-02T01:17:31;4.33;;;2.30;;
8413;SDS011;4244;48.684;9.028;2022-08-02T01:20:04;3.50;;;2.60;;
8413;SDS011;4244;48.684;9.028;2022-08-02T01:31:23;2.70;;;2.50;;
8413;SDS011;4244;48.684;9.028;2022-08-02T01:34:14;4.67;;;2.67;;
8413;SDS011;4244;48.684;9.028;2022-08-02T01:36:48;3.60;;;2.83;;
8413;SDS011;4244;48.684;9.028;2022-08-02T01:39:20;3.60;;;3.03;;
8413;SDS011;4244;48.684;9.028;2022-08-02T01:41:49;2.17;;;1.97;;
8413;SDS011;4244;48.684;9.028;2022-08-02T01:44:16;4.23;;;2.50;;
8413;SDS011;4244;48.684;9.028;2022-08-02T01:46:43;5.23;;;2.43;;
8413;SDS011;4244;48.684;9.028;2022-08-02T01:49:11;2.60;;;2.40;;
8413;SDS011;4244;48.684;9.028;2022-08-02T01:51:40;2.90;;;2.70;;
8413;SDS011;4244;48.684;9.028;2022-08-02T01:54:26;3.00;;;2.70;;
8413;SDS011;4244;48.684;9.028;2022-08-02T01:56:55;3.20;;;2.57;;
8413;SDS011;4244;48.684;9.028;2022-08-02T02:02:12;2.20;;;2.00;;
8413;SDS011;4244;48.684;9.028;2022-08-02T02:04:39;4.73;;;2.93;;
8413;SDS011;4244;48.684;9.028;2022-08-02T02:07:05;2.30;;;2.10;;
8413;SDS011;4244;48.684;9.028;2022-08-02T02:09:33;4.00;;;3.10;;
8413;SDS011;4244;48.684;9.028;2022-08-02T02:12:01;2.33;;;2.00;;
8413;SDS011;4244;48.684;9.028;2022-08-02T02:14:27;2.80;;;2.40;;
8413;SDS011;4244;48.684;9.028;2022-08-02T02:16:54;2.97;;;2.73;;
8413;SDS011;4244;48.684;9.028;2022-08-02T02:19:22;5.50;;;2.87;;
8413;SDS011;4244;48.684;9.028;2022-08-02T02:21:48;3.20;;;2.17;;
8413;SDS011;4244;48.684;9.028;2022-08-02T02:24:13;4.43;;;2.30;;
8413;SDS011;4244;48.684;9.028;2022-08-02T02:26:39;2.70;;;2.47;;
8413;SDS011;4244;48.684;9.028;2022-08-02T02:29:06;3.00;;;2.70;;
8413;SDS011;4244;48.684;9.028;2022-08-02T02:31:39;4.00;;;2.30;;
8413;SDS011;4244;48.684;9.028;2022-08-02T02:34:08;3.33;;;2.70;;
8413;SDS011;4244;48.684;9.028;2022-08-02T02:36:47;2.70;;;2.50;;
8413;SDS011;4244;48.684;9.028;2022-08-02T02:39:14;4.10;;;2.93;;
8413;SDS011;4244;48.684;9.028;2022-08-02T02:41:41;3.00;;;2.80;;
8413;SDS011;4244;48.684;9.028;2022-08-02T02:44:08;3.17;;;2.87;;
8413;SDS011;4244;48.684;9.028;2022-08-02T02:46:35;7.00;;;2.70;;
8413;SDS011;4244;48.684;9.028;2022-08-02T02:49:01;2.77;;;2.50;;
8413;SDS011;4244;48.684;9.028;2022-08-02T02:51:27;3.07;;;2.57;;
8413;SDS011;4244;48.684;9.028;2022-08-02T02:53:52;2.57;;;2.23;;
8413;SDS011;4244;48.684;9.028;2022-08-02T02:56:19;2.93;;;2.50;;
8413;SDS011;4244;48.684;9.028;2022-08-02T02:58:45;2.60;;;2.30;;
8413;SDS011;4244;48.684;9.028;2022-08-02T03:01:11;4.33;;;2.80;;
8413;SDS011;4244;48.684;9.028;2022-08-02T03:03:55;2.97;;;2.47;;
8413;SDS011;4244;48.684;9.028;2022-08-02T03:06:22;3.73;;;2.77;;
8413;SDS011;4244;48.684;9.028;2022-08-02T03:08:48;2.43;;;2.13;;
8413;SDS011;4244;48.684;9.028;2022-08-02T03:11:13;2.20;;;2.00;;
8413;SDS011;4244;48.684;9.028;2022-08-02T03:13:39;2.87;;;2.30;;
8413;SDS011;4244;48.684;9.028;2022-08-02T03:16:05;4.00;;;2.40;;
8413;SDS011;4244;48.684;9.028;2022-08-02T03:18:32;3.00;;;2.63;;
8413;SDS011;4244;48.684;9.028;2022-08-02T03:21:08;2.70;;;2.50;;
8413;SDS011;4244;48.684;9.028;2022-08-02T03:23:38;2.73;;;2.53;;
8413;SDS011;4244;48.684;9.028;2022-08-02T03:26:05;3.03;;;2.73;;
8413;SDS011;4244;48.684;9.028;2022-08-02T03:28:31;3.53;;;2.60;;
8413;SDS011;4244;48.684;9.028;2022-08-02T03:30:57;5.17;;;2.60;;
8413;SDS011;4244;48.684;9.028;2022-08-02T03:33:23;2.80;;;2.13;;
8413;SDS011;4244;48.684;9.028;2022-08-02T03:35:51;2.50;;;2.27;;
8413;SDS011;4244;48.684;9.028;2022-08-02T03:38:18;2.97;;;2.67;;
8413;SDS011;4244;48.684;9.028;2022-08-02T03:40:46;4.93;;;2.60;;
8413;SDS011;4244;48.684;9.028;2022-08-02T03:43:12;3.43;;;2.40;;
8413;SDS011;4244;48.684;9.028;2022-08-02T03:45:38;2.83;;;2.10;;
8413;SDS011;4244;48.684;9.028;2022-08-02T03:48:09;2.50;;;2.30;;
8413;SDS011;4244;48.684;9.028;2022-08-02T03:50:36;2.97;;;2.77;;
8413;SDS011;4244;48.684;9.028;2022-08-02T03:53:03;3.40;;;2.50;;
8413;SDS011;4244;48.684;9.028;2022-08-02T03:55:29;2.40;;;2.20;;
8413;SDS011;4244;48.684;9.028;2022-08-02T03:57:55;2.70;;;2.40;;
8413;SDS011;4244;48.684;9.028;2022-08-02T04:00:21;2.70;;;2.07;;
8413;SDS011;4244;48.684;9.028;2022-08-02T04:02:47;2.50;;;2.30;;
8413;SDS011;4244;48.684;9.028;2022-08-02T04:05:13;3.20;;;2.90;;
8413;SDS011;4244;48.684;9.028;2022-08-02T04:07:40;5.33;;;2.40;;
8413;SDS011;4244;48.684;9.028;2022-08-02T04:10:07;4.63;;;2.40;;
8413;SDS011;4244;48.684;9.028;2022-08-02T04:12:33;3.37;;;2.60;;
8413;SDS011;4244;48.684;9.028;2022-08-02T04:14:59;3.10;;;2.30;;
8413;SDS011;4244;48.684;9.028;2022-08-02T04:17:26;3.17;;;2.83;;
8413;SDS011;4244;48.684;9.028;2022-08-02T04:22:40;3.20;;;3.00;;
8413;SDS011;4244;48.684;9.028;2022-08-02T04:25:11;3.13;;;2.50;;
8413;SDS011;4244;48.684;9.028;2022-08-02T04:27:37;3.67;;;2.43;;
8413;SDS011;4244;48.684;9.028;2022-08-02T04:30:04;2.60;;;2.30;;
8413;SDS011;4244;48.684;9.028;2022-08-02T04:32:31;2.70;;;2.50;;
8413;SDS011;4244;48.684;9.028;2022-08-02T04:34:57;2.80;;;2.60;;
8413;SDS011;4244;48.684;9.028;2022-08-02T04:37:24;3.00;;;2.73;;
8413;SDS011;4244;48.684;9.028;2022-08-02T04:39:50;3.53;;;2.80;;
8413;SDS011;4244;48.684;9.028;2022-08-02T04:42:23;2.93;;;2.67;;
8413;SDS011;4244;48.684;9.028;2022-08-02T04:44:49;3.30;;;3.00;;
8413;SDS011;4244;48.684;9.028;2022-08-02T04:47:15;3.63;;;2.60;;
8413;SDS011;4244;48.684;9.028;2022-08-02T04:49:42;2.90;;;2.53;;
8413;SDS011;4244;48.684;9.028;2022-08-02T04:52:07;2.77;;;2.47;;
8413;SDS011;4244;48.684;9.028;2022-08-02T04:54:33;4.67;;;3.10;;
8413;SDS011;4244;48.684;9.028;2022-08-02T04:56:59;2.30;;;2.07;;
8413;SDS011;4244;48.684;9.028;2022-08-02T04:59:25;2.87;;;2.50;;
8413;SDS011;4244;48.684;9.028;2022-08-02T05:01:51;3.50;;;2.83;;
8413;SDS011;4244;48.684;9.028;2022-08-02T05:04:18;3.10;;;2.40;;
8413;SDS011;4244;48.684;9.028;2022-08-02T05:06:43;3.03;;;2.57;;
8413;SDS011;4244;48.684;9.028;2022-08-02T05:09:09;3.00;;;2.70;;
8413;SDS011;4244;48.684;9.028;2022-08-02T05:11:35;2.40;;;2.20;;
8413;SDS011;4244;48.684;9.028;2022-08-02T05:14:00;3.77;;;2.43;;
8413;SDS011;4244;48.684;9.028;2022-08-02T05:16:26;3.60;;;2.33;;
8413;SDS011;4244;48.684;9.028;2022-08-02T05:18:52;3.30;;;2.37;;
8413;SDS011;4244;48.684;9.028;2022-08-02T05:21:17;2.97;;;2.40;;
8413;SDS011;4244;48.684;9.028;2022-08-02T05:23:43;3.20;;;2.90;;
8413;SDS011;4244;48.684;9.028;2022-08-02T05:26:09;2.70;;;2.50;;
8413;SDS011;4244;48.684;9.028;2022-08-02T05:28:35;3.50;;;3.20;;
8413;SDS011;4244;48.684;9.028;2022-08-02T05:31:00;2.70;;;2.23;;
8413;SDS011;4244;48.684;9.028;2022-08-02T05:33:26;3.20;;;2.90;;
8413;SDS011;4244;48.684;9.028;2022-08-02T05:35:51;3.40;;;2.63;;
8413;SDS011;4244;48.684;9.028;2022-08-02T05:38:17;3.30;;;2.80;;
8413;SDS011;4244;48.684;9.028;2022-08-02T05:40:43;3.50;;;2.83;;
8413;SDS011;4244;48.684;9.028;2022-08-02T05:43:12;3.07;;;2.80;;
8413;SDS011;4244;48.684;9.028;2022-08-02T05:45:38;3.20;;;2.90;;
8413;SDS011;4244;48.684;9.028;2022-08-02T05:48:04;5.73;;;3.17;;
8413;SDS011;4244;48.684;9.028;2022-08-02T05:50:30;3.23;;;2.63;;
8413;SDS011;4244;48.684;9.028;2022-08-02T05:53:02;4.50;;;2.60;;
8413;SDS011;4244;48.684;9.028;2022-08-02T05:55:34;2.43;;;2.10;;
8413;SDS011;4244;48.684;9.028;2022-08-02T05:58:12;4.00;;;2.80;;
8413;SDS011;4244;48.684;9.028;2022-08-02T06:00:39;2.83;;;2.50;;
8413;SDS011;4244;48.684;9.028;2022-08-02T06:08:32;3.87;;;3.47;;
8413;SDS011;4244;48.684;9.028;2022-08-02T06:11:04;3.37;;;3.07;;
8413;SDS011;4244;48.684;9.028;2022-08-02T06:13:31;2.57;;;2.37;;
8413;SDS011;4244;48.684;9.028;2022-08-02T06:15:57;3.37;;;2.70;;
8413;SDS011;4244;48.684;9.028;2022-08-02T06:18:25;2.60;;;2.40;;
8413;SDS011;4244;48.684;9.028;2022-08-02T06:20:52;3.67;;;2.50;;
8413;SDS011;4244;48.684;9.028;2022-08-02T06:23:20;3.57;;;3.27;;
8413;SDS011;4244;48.684;9.028;2022-08-02T06:25:47;3.80;;;3.00;;
8413;SDS011;4244;48.684;9.028;2022-08-02T06:28:14;3.07;;;2.80;;
8413;SDS011;4244;48.684;9.028;2022-08-02T06:30:40;3.43;;;3.13;;
8413;SDS011;4244;48.684;9.028;2022-08-02T06:33:08;4.07;;;3.47;;
8413;SDS011;4244;48.684;9.028;2022-08-02T06:35:39;6.33;;;3.90;;
8413;SDS011;4244;48.684;9.028;2022-08-02T06:38:40;4.57;;;4.00;;
8413;SDS011;4244;48.684;9.028;2022-08-02T06:41:08;3.77;;;3.40;;
8413;SDS011;4244;48.684;9.028;2022-08-02T06:46:11;4.70;;;3.13;;
8413;SDS011;4244;48.684;9.028;2022-08-02T06:48:37;3.63;;;3.00;;
8413;SDS011;4244;48.684;9.028;2022-08-02T06:51:03;4.10;;;3.63;;
8413;SDS011;4244;48.684;9.028;2022-08-02T06:53:29;4.30;;;3.67;;
8413;SDS011;4244;48.684;9.028;2022-08-02T06:55:55;3.07;;;2.80;;
8413;SDS011;4244;48.684;9.028;2022-08-02T06:58:20;3.73;;;3.23;;
8413;SDS011;4244;48.684;9.028;2022-08-02T07:00:46;3.33;;;3.03;;
8413;SDS011;4244;48.684;9.028;2022-08-02T07:03:12;3.70;;;3.40;;
8413;SDS011;4244;48.684;9.028;2022-08-02T07:05:39;2.87;;;2.67;;
8413;SDS011;4244;48.684;9.028;2022-08-02T07:08:05;5.30;;;4.10;;
8413;SDS011;4244;48.684;9.028;2022-08-02T07:10:31;4.03;;;3.27;;
8413;SDS011;4244;48.684;9.028;2022-08-02T07:12:56;3.77;;;3.43;;
8413;SDS011;4244;48.684;9.028;2022-08-02T07:15:22;3.83;;;3.53;;
8413;SDS011;4244;48.684;9.028;2022-08-02T07:17:48;5.00;;;4.60;;
8413;SDS011;4244;48.684;9.028;2022-08-02T07:20:14;6.80;;;4.10;;
8413;SDS011;4244;48.684;9.028;2022-08-02T07:22:40;5.37;;;3.80;;
8413;SDS011;4244;48.684;9.028;2022-08-02T07:25:06;5.83;;;3.40;;
8413;SDS011;4244;48.684;9.028;2022-08-02T07:27:32;4.67;;;4.17;;
8413;SDS011;4244;48.684;9.028;2022-08-02T07:29:58;4.30;;;3.90;;
8413;SDS011;4244;48.684;9.028;2022-08-02T07:32:26;5.47;;;4.90;;
8413;SDS011;4244;48.684;9.028;2022-08-02T07:34:53;5.03;;;4.37;;
8413;SDS011;4244;48.684;9.028;2022-08-02T07:37:23;6.53;;;5.87;;
8413;SDS011;4244;48.684;9.028;2022-08-02T07:39:50;6.50;;;6.00;;
8413;SDS011;4244;48.684;9.028;2022-08-02T07:42:16;6.53;;;5.90;;
8413;SDS011;4244;48.684;9.028;2022-08-02T07:44:42;7.23;;;6.53;;
8413;SDS011;4244;48.684;9.028;2022-08-02T07:47:07;5.10;;;4.60;;
8413;SDS011;4244;48.684;9.028;2022-08-02T07:49:33;5.33;;;4.53;;
8413;SDS011;4244;48.684;9.028;2022-08-02T07:51:59;5.20;;;3.60;;
8413;SDS011;4244;48.684;9.028;2022-08-02T07:54:25;4.50;;;4.10;;
8413;SDS011;4244;48.684;9.028;2022-08-02T07:56:53;5.90;;;5.30;;
8413;SDS011;4244;48.684;9.028;2022-08-02T07:59:20;5.73;;;5.20;;
8413;SDS011;4244;48.684;9.028;2022-08-02T08:01:47;5.37;;;4.70;;
8413;SDS011;4244;48.684;9.028;2022-08-02T08:04:14;9.50;;;6.17;;
8413;SDS011;4244;48.684;9.028;2022-08-02T08:06:40;5.00;;;4.60;;
8413;SDS011;4244;48.684;9.028;2022-08-02T08:09:06;5.60;;;5.10;;
8413;SDS011;4244;48.684;9.028;2022-08-02T08:11:31;5.07;;;4.57;;
8413;SDS011;4244;48.684;9.028;2022-08-02T08:13:57;6.23;;;5.73;;
8413;SDS011;4244;48.684;9.028;2022-08-02T08:16:23;5.03;;;4.63;;
8413;SDS011;4244;48.684;9.028;2022-08-02T08:18:53;6.03;;;5.30;;
8413;SDS011;4244;48.684;9.028;2022-08-02T08:21:20;6.97;;;6.37;;
8413;SDS011;4244;48.684;9.028;2022-08-02T08:23:46;6.17;;;5.57;;
8413;SDS011;4244;48.684;9.028;2022-08-02T08:26:11;7.83;;;7.03;;
8413;SDS011;4244;48.684;9.028;2022-08-02T08:28:37;8.87;;;7.80;;
8413;SDS011;4244;48.684;9.028;2022-08-02T08:31:03;7.47;;;6.87;;
8413;SDS011;4244;48.684;9.028;2022-08-02T08:33:28;7.90;;;7.20;;
8413;SDS011;4244;48.684;9.028;2022-08-02T08:35:54;6.70;;;6.20;;
8413;SDS011;4244;48.684;9.028;2022-08-02T08:38:20;7.57;;;6.87;;
8413;SDS011;4244;48.684;9.028;2022-08-02T08:40:49;6.87;;;6.17;;
8413;SDS011;4244;48.684;9.028;2022-08-02T08:43:15;6.00;;;5.50;;
8413;SDS011;4244;48.684;9.028;2022-08-02T08:45:44;6.33;;;5.60;;
8413;SDS011;4244;48.684;9.028;2022-08-02T08:48:12;7.57;;;6.87;;
8413;SDS011;4244;48.684;9.028;2022-08-02T08:51:27;10.80;;;7.10;;
8413;SDS011;4244;48.684;9.028;2022-08-02T08:53:47;7.40;;;6.70;;
8413;SDS011;4244;48.684;9.028;2022-08-02T08:56:15;8.60;;;7.40;;
8413;SDS011;4244;48.684;9.028;2022-08-02T08:58:41;7.90;;;6.30;;
8413;SDS011;4244;48.684;9.028;2022-08-02T09:01:08;7.63;;;6.80;;
8413;SDS011;4244;48.684;9.028;2022-08-02T09:03:34;6.77;;;6.17;;
8413;SDS011;4244;48.684;9.028;2022-08-02T09:06:01;6.10;;;5.50;;
8413;SDS011;4244;48.684;9.028;2022-08-02T09:08:27;8.47;;;5.50;;
8413;SDS011;4244;48.684;9.028;2022-08-02T09:10:52;6.70;;;6.20;;
8413;SDS011;4244;48.684;9.028;2022-08-02T09:15:54;5.80;;;5.30;;
8413;SDS011;4244;48.684;9.028;2022-08-02T09:20:57;9.23;;;7.47;;
8413;SDS011;4244;48.684;9.028;2022-08-02T09:23:36;6.47;;;5.87;;
8413;SDS011;4244;48.684;9.028;2022-08-02T09:26:04;7.00;;;6.40;;
8413;SDS011;4244;48.684;9.028;2022-08-02T09:28:33;7.93;;;7.17;;
8413;SDS011;4244;48.684;9.028;2022-08-02T09:31:04;7.23;;;6.53;;
8413;SDS011;4244;48.684;9.028;2022-08-02T09:33:34;7.03;;;6.40;;
8413;SDS011;4244;48.684;9.028;2022-08-02T09:36:05;8.27;;;7.37;;
8413;SDS011;4244;48.684;9.028;2022-08-02T09:38:37;7.53;;;6.83;;
8413;SDS011;4244;48.684;9.028;2022-08-02T09:41:04;7.13;;;6.53;;
8413;SDS011;4244;48.684;9.028;2022-08-02T09:43:37;8.60;;;6.40;;
8413;SDS011;4244;48.684;9.028;2022-08-02T09:48:54;6.17;;;5.77;;
8413;SDS011;4244;48.684;9.028;2022-08-02T09:51:21;6.97;;;5.83;;
8413;SDS011;4244;48.684;9.028;2022-08-02T09:53:55;5.60;;;5.17;;
8413;SDS011;4244;48.684;9.028;2022-08-02T09:56:24;5.90;;;5.40;;
8413;SDS011;4244;48.684;9.028;2022-08-02T09:58:50;6.50;;;5.90;;
8413;SDS011;4244;48.684;9.028;2022-08-02T10:01:19;6.37;;;5.87;;
8413;SDS011;4244;48.684;9.028;2022-08-02T10:03:58;6.17;;;5.57;;
8413;SDS011;4244;48.684;9.028;2022-08-02T10:06:26;5.73;;;5.13;;
8413;SDS011;4244;48.684;9.028;2022-08-02T10:08:53;6.37;;;5.30;;
8413;SDS011;4244;48.684;9.028;2022-08-02T10:11:23;5.80;;;5.40;;
8413;SDS011;4244;48.684;9.028;2022-08-02T10:13:52;5.20;;;4.80;;
8413;SDS011;4244;48.684;9.028;2022-08-02T10:16:20;4.97;;;4.57;;
8413;SDS011;4244;48.684;9.028;2022-08-02T10:18:54;5.10;;;4.70;;
8413;SDS011;4244;48.684;9.028;2022-08-02T10:24:08;5.73;;;5.30;;
8413;SDS011;4244;48.684;9.028;2022-08-02T10:26:37;5.20;;;4.80;;
8413;SDS011;4244;48.684;9.028;2022-08-02T10:29:04;5.90;;;5.40;;
8413;SDS011;4244;48.684;9.028;2022-08-02T10:31:34;5.50;;;5.10;;
8413;SDS011;4244;48.684;9.028;2022-08-02T10:34:03;4.50;;;4.20;;
8413;SDS011;4244;48.684;9.028;2022-08-02T10:36:35;5.73;;;5.27;;
8413;SDS011;4244;48.684;9.028;2022-08-02T10:39:03;5.30;;;4.80;;
8413;SDS011;4244;48.684;9.028;2022-08-02T10:44:25;6.20;;;5.60;;
8413;SDS011;4244;48.684;9.028;2022-08-02T10:49:46;5.30;;;4.90;;
8413;SDS011;4244;48.684;9.028;2022-08-02T10:54:58;6.57;;;5.97;;
8413;SDS011;4244;48.684;9.028;2022-08-02T10:57:28;6.13;;;5.63;;
8413;SDS011;4244;48.684;9.028;2022-08-02T10:59:56;5.73;;;5.20;;
8413;SDS011;4244;48.684;9.028;2022-08-02T11:02:41;5.03;;;4.57;;
8413;SDS011;4244;48.684;9.028;2022-08-02T11:05:08;5.27;;;4.83;;
8413;SDS011;4244;48.684;9.028;2022-08-02T11:10:27;6.00;;;5.50;;
8413;SDS011;4244;48.684;9.028;2022-08-02T11:18:11;5.07;;;4.67;;
8413;SDS011;4244;48.684;9.028;2022-08-02T11:20:37;4.90;;;4.50;;
8413;SDS011;4244;48.684;9.028;2022-08-02T11:26:47;7.23;;;4.90;;
8413;SDS011;4244;48.684;9.028;2022-08-02T11:28:54;6.37;;;5.87;;
8413;SDS011;4244;48.684;9.028;2022-08-02T11:31:24;6.00;;;5.50;;
8413;SDS011;4244;48.684;9.028;2022-08-02T11:33:50;5.30;;;4.87;;
8413;SDS011;4244;48.684;9.028;2022-08-02T11:36:16;5.30;;;4.90;;
8413;SDS011;4244;48.684;9.028;2022-08-02T11:38:42;5.40;;;4.97;;
8413;SDS011;4244;48.684;9.028;2022-08-02T11:41:09;5.13;;;4.73;;
8413;SDS011;4244;48.684;9.028;2022-08-02T11:43:55;13.87;;;6.67;;
8413;SDS011;4244;48.684;9.028;2022-08-02T11:46:20;5.43;;;4.80;;
8413;SDS011;4244;48.684;9.028;2022-08-02T11:48:46;5.63;;;5.13;;
8413;SDS011;4244;48.684;9.028;2022-08-02T11:51:13;5.33;;;4.93;;
8413;SDS011;4244;48.684;9.028;2022-08-02T11:53:43;4.80;;;4.40;;
8413;SDS011;4244;48.684;9.028;2022-08-02T11:56:25;5.17;;;4.77;;
8413;SDS011;4244;48.684;9.028;2022-08-02T11:59:02;5.10;;;4.50;;
8413;SDS011;4244;48.684;9.028;2022-08-02T12:01:37;5.83;;;5.33;;
8413;SDS011;4244;48.684;9.028;2022-08-02T12:04:04;5.90;;;5.23;;
8413;SDS011;4244;48.684;9.028;2022-08-02T12:06:30;9.07;;;5.93;;
8413;SDS011;4244;48.684;9.028;2022-08-02T12:09:07;5.00;;;4.60;;
8413;SDS011;4244;48.684;9.028;2022-08-02T12:11:34;8.90;;;5.40;;
8413;SDS011;4244;48.684;9.028;2022-08-02T12:14:03;5.30;;;4.80;;
8413;SDS011;4244;48.684;9.028;2022-08-02T12:16:33;4.70;;;4.30;;
8413;SDS011;4244;48.684;9.028;2022-08-02T12:19:19;4.73;;;4.33;;
8413;SDS011;4244;48.684;9.028;2022-08-02T12:24:46;4.63;;;4.27;;
8413;SDS011;4244;48.684;9.028;2022-08-02T12:27:30;4.70;;;4.20;;
8413;SDS011;4244;48.684;9.028;2022-08-02T12:29:59;4.50;;;4.10;;
8413;SDS011;4244;48.684;9.028;2022-08-02T12:32:43;4.20;;;3.90;;
8413;SDS011;4244;48.684;9.028;2022-08-02T12:35:14;4.80;;;4.30;;
8413;SDS011;4244;48.684;9.028;2022-08-02T12:37:42;4.90;;;4.50;;
8413;SDS011;4244;48.684;9.028;2022-08-02T12:42:51;4.60;;;4.30;;
8413;SDS011;4244;48.684;9.028;2022-08-02T12:45:18;5.53;;;5.13;;
8413;SDS011;4244;48.684;9.028;2022-08-02T12:47:45;4.50;;;4.20;;
8413;SDS011;4244;48.684;9.028;2022-08-02T12:50:31;4.70;;;3.90;;
8413;SDS011;4244;48.684;9.028;2022-08-02T12:55:50;4.50;;;4.10;;
8413;SDS011;4244;48.684;9.028;2022-08-02T12:58:16;4.90;;;4.50;;
8413;SDS011;4244;48.684;9.028;2022-08-02T13:00:42;4.77;;;4.47;;
8413;SDS011;4244;48.684;9.028;2022-08-02T13:03:08;5.60;;;4.23;;
8413;SDS011;4244;48.684;9.028;2022-08-02T13:05:34;5.33;;;4.83;;
8413;SDS011;4244;48.684;9.028;2022-08-02T13:08:01;5.10;;;4.57;;
8413;SDS011;4244;48.684;9.028;2022-08-02T13:10:27;5.67;;;5.17;;
8413;SDS011;4244;48.684;9.028;2022-08-02T13:12:53;5.33;;;4.93;;
8413;SDS011;4244;48.684;9.028;2022-08-02T13:15:20;6.97;;;5.73;;
8413;SDS011;4244;48.684;9.028;2022-08-02T13:17:46;4.93;;;4.50;;
8413;SDS011;4244;48.684;9.028;2022-08-02T13:20:12;4.80;;;4.50;;
8413;SDS011;4244;48.684;9.028;2022-08-02T13:22:41;4.70;;;4.40;;
8413;SDS011;4244;48.684;9.028;2022-08-02T13:25:07;4.47;;;4.13;;
8413;SDS011;4244;48.684;9.028;2022-08-02T13:27:33;4.97;;;4.57;;
8413;SDS011;4244;48.684;9.028;2022-08-02T13:30:00;4.90;;;4.60;;
8413;SDS011;4244;48.684;9.028;2022-08-02T13:32:26;4.73;;;4.43;;
8413;SDS011;4244;48.684;9.028;2022-08-02T13:34:53;4.60;;;4.20;;
8413;SDS011;4244;48.684;9.028;2022-08-02T13:37:19;4.40;;;4.10;;
8413;SDS011;4244;48.684;9.028;2022-08-02T13:39:46;4.50;;;4.20;;
8413;SDS011;4244;48.684;9.028;2022-08-02T13:42:12;4.60;;;4.30;;
8413;SDS011;4244;48.684;9.028;2022-08-02T13:44:38;4.70;;;4.40;;
8413;SDS011;4244;48.684;9.028;2022-08-02T13:47:03;5.30;;;4.90;;
8413;SDS011;4244;48.684;9.028;2022-08-02T13:49:29;4.40;;;4.10;;
8413;SDS011;4244;48.684;9.028;2022-08-02T13:51:55;4.23;;;3.93;;
8413;SDS011;4244;48.684;9.028;2022-08-02T13:54:21;4.90;;;4.60;;
8413;SDS011;4244;48.684;9.028;2022-08-02T13:56:46;6.40;;;5.80;;
8413;SDS011;4244;48.684;9.028;2022-08-02T13:59:12;5.70;;;5.30;;
8413;SDS011;4244;48.684;9.028;2022-08-02T14:01:37;4.90;;;4.50;;
8413;SDS011;4244;48.684;9.028;2022-08-02T14:04:03;5.50;;;5.00;;
8413;SDS011;4244;48.684;9.028;2022-08-02T14:06:29;4.83;;;4.53;;
8413;SDS011;4244;48.684;9.028;2022-08-02T14:08:55;5.00;;;4.70;;
8413;SDS011;4244;48.684;9.028;2022-08-02T14:11:21;5.20;;;4.70;;
8413;SDS011;4244;48.684;9.028;2022-08-02T14:13:46;4.87;;;4.50;;
8413;SDS011;4244;48.684;9.028;2022-08-02T14:16:12;5.80;;;5.30;;
8413;SDS011;4244;48.684;9.028;2022-08-02T14:18:38;5.10;;;4.70;;
8413;SDS011;4244;48.684;9.028;2022-08-02T14:21:04;5.10;;;4.80;;
8413;SDS011;4244;48.684;9.028;2022-08-02T14:23:29;5.67;;;5.27;;
8413;SDS011;4244;48.684;9.028;2022-08-02T14:25:56;5.87;;;5.30;;
8413;SDS011;4244;48.684;9.028;2022-08-02T14:28:22;4.80;;;4.40;;
8413;SDS011;4244;48.684;9.028;2022-08-02T14:30:47;7.80;;;4.90;;
8413;SDS011;4244;48.684;9.028;2022-08-02T14:33:13;5.20;;;4.80;;
8413;SDS011;4244;48.684;9.028;2022-08-02T14:35:39;4.87;;;4.57;;
8413;SDS011;4244;48.684;9.028;2022-08-02T14:38:04;5.27;;;4.87;;
8413;SDS011;4244;48.684;9.028;2022-08-02T14:40:30;4.87;;;4.37;;
8413;SDS011;4244;48.684;9.028;2022-08-02T14:42:56;5.43;;;5.03;;
8413;SDS011;4244;48.684;9.028;2022-08-02T14:45:22;5.37;;;4.90;;
8413;SDS011;4244;48.684;9.028;2022-08-02T14:47:50;5.80;;;5.10;;
8413;SDS011;4244;48.684;9.028;2022-08-02T14:50:16;4.97;;;4.47;;
8413;SDS011;4244;48.684;9.028;2022-08-02T14:52:46;4.87;;;4.40;;
8413;SDS011;4244;48.684;9.028;2022-08-02T14:55:13;5.03;;;4.53;;
8413;SDS011;4244;48.684;9.028;2022-08-02T14:57:39;4.80;;;4.23;;
8413;SDS011;4244;48.684;9.028;2022-08-02T15:00:05;4.33;;;3.93;;
8413;SDS011;4244;48.684;9.028;2022-08-02T15:02:31;4.67;;;4.33;;
8413;SDS011;4244;48.684;9.028;2022-08-02T15:04:56;4.80;;;4.40;;
8413;SDS011;4244;48.684;9.028;2022-08-02T15:07:22;5.40;;;5.00;;
8413;SDS011;4244;48.684;9.028;2022-08-02T15:09:48;4.07;;;3.77;;
8413;SDS011;4244;48.684;9.028;2022-08-02T15:12:14;5.00;;;4.60;;
8413;SDS011;4244;48.684;9.028;2022-08-02T15:14:40;4.63;;;4.30;;
8413;SDS011;4244;48.684;9.028;2022-08-02T15:17:07;5.00;;;4.70;;
8413;SDS011;4244;48.684;9.028;2022-08-02T15:19:33;5.10;;;4.70;;
8413;SDS011;4244;48.684;9.028;2022-08-02T15:21:58;5.07;;;4.67;;
8413;SDS011;4244;48.684;9.028;2022-08-02T15:24:24;5.40;;;5.00;;
8413;SDS011;4244;48.684;9.028;2022-08-02T15:26:51;5.03;;;4.63;;
8413;SDS011;4244;48.684;9.028;2022-08-02T15:29:17;5.40;;;4.90;;
8413;SDS011;4244;48.684;9.028;2022-08-02T15:31:43;5.10;;;4.70;;
8413;SDS011;4244;48.684;9.028;2022-08-02T15:34:09;5.53;;;5.13;;
8413;SDS011;4244;48.684;9.028;2022-08-02T15:36:35;5.23;;;4.83;;
8413;SDS011;4244;48.684;9.028;2022-08-02T15:39:00;5.60;;;5.20;;
8413;SDS011;4244;48.684;9.028;2022-08-02T15:41:26;5.70;;;5.20;;
8413;SDS011;4244;48.684;9.028;2022-08-02T15:43:52;5.63;;;5.23;;
8413;SDS011;4244;48.684;9.028;2022-08-02T15:46:18;5.43;;;5.03;;
8413;SDS011;4244;48.684;9.028;2022-08-02T15:48:43;5.17;;;4.77;;
8413;SDS011;4244;48.684;9.028;2022-08-02T15:51:09;5.10;;;4.60;;
8413;SDS011;4244;48.684;9.028;2022-08-02T15:53:35;5.33;;;4.77;;
8413;SDS011;4244;48.684;9.028;2022-08-02T15:56:01;5.40;;;5.00;;
8413;SDS011;4244;48.684;9.028;2022-08-02T15:58:26;5.13;;;4.67;;
8413;SDS011;4244;48.684;9.028;2022-08-02T16:00:52;5.30;;;4.90;;
8413;SDS011;4244;48.684;9.028;2022-08-02T16:03:18;5.33;;;4.83;;
8413;SDS011;4244;48.684;9.028;2022-08-02T16:05:44;6.10;;;5.07;;
8413;SDS011;4244;48.684;9.028;2022-08-02T16:08:10;6.27;;;5.67;;
8413;SDS011;4244;48.684;9.028;2022-08-02T16:10:35;6.00;;;5.40;;
8413;SDS011;4244;48.684;9.028;2022-08-02T16:13:01;5.23;;;4.83;;
8413;SDS011;4244;48.684;9.028;2022-08-02T16:15:45;5.40;;;5.00;;
8413;SDS011;4244;48.684;9.028;2022-08-02T16:18:11;4.70;;;4.40;;
8413;SDS011;4244;48.684;9.028;2022-08-02T16:20:37;5.37;;;4.97;;